createdAt,value
2018-11-06T00:00:53.803Z,16.73
2018-11-06T00:03:28.382Z,17.07
2018-11-06T00:06:03.903Z,16.50
2018-11-06T00:08:33.000Z,16.43
2018-11-06T00:11:03.835Z,16.87
2018-11-06T00:13:34.669Z,16.63
2018-11-06T00:16:04.566Z,16.70
2018-11-06T00:18:33.684Z,17.10
2018-11-06T00:21:03.349Z,16.03
2018-11-06T00:23:32.489Z,16.57
2018-11-06T00:26:01.606Z,16.47
2018-11-06T00:28:30.695Z,16.47
2018-11-06T00:30:59.851Z,16.63
2018-11-06T00:33:29.236Z,16.67
2018-11-06T00:35:58.431Z,16.93
2018-11-06T00:38:27.554Z,16.30
2018-11-06T00:40:56.667Z,16.97
2018-11-06T00:43:25.650Z,17.03
2018-11-06T00:45:54.667Z,16.63
2018-11-06T00:48:24.504Z,15.97
2018-11-06T00:50:53.580Z,16.53
2018-11-06T00:53:22.611Z,16.33
2018-11-06T00:55:51.649Z,16.40
2018-11-06T00:58:20.661Z,16.80
2018-11-06T01:00:49.994Z,15.43
2018-11-06T01:03:19.064Z,16.73
2018-11-06T01:05:48.184Z,15.63
2018-11-06T01:08:17.581Z,16.70
2018-11-06T01:10:46.801Z,16.70
2018-11-06T01:13:16.404Z,16.20
2018-11-06T01:15:45.397Z,16.93
2018-11-06T01:18:14.405Z,16.17
2018-11-06T01:20:44.671Z,15.77
2018-11-06T01:23:13.729Z,15.87
2018-11-06T01:25:42.786Z,16.10
2018-11-06T01:28:11.955Z,16.20
2018-11-06T01:30:41.034Z,17.00
2018-11-06T01:33:10.008Z,16.80
2018-11-06T01:35:39.004Z,16.47
2018-11-06T01:38:08.059Z,16.90
2018-11-06T01:40:37.268Z,16.37
2018-11-06T01:43:06.287Z,16.97
2018-11-06T01:45:35.373Z,16.93
2018-11-06T01:48:04.484Z,16.53
2018-11-06T01:50:34.264Z,16.03
2018-11-06T01:53:03.260Z,16.20
2018-11-06T01:55:32.354Z,16.73
2018-11-06T01:58:01.364Z,17.33
2018-11-06T02:00:30.395Z,17.67
2018-11-06T02:02:59.380Z,15.57
2018-11-06T02:05:28.388Z,16.23
2018-11-06T02:07:58.262Z,16.43
2018-11-06T02:10:27.203Z,16.60
2018-11-06T02:12:56.205Z,16.27
2018-11-06T02:15:25.237Z,17.43
2018-11-06T02:17:54.390Z,15.87
2018-11-06T02:20:23.559Z,16.47
2018-11-06T02:22:53.224Z,16.40
2018-11-06T02:25:22.483Z,17.07
2018-11-06T02:27:51.522Z,16.73
2018-11-06T02:30:20.626Z,17.20
2018-11-06T02:32:49.645Z,16.77
2018-11-06T02:35:19.317Z,16.57
2018-11-06T02:37:49.369Z,16.47
2018-11-06T02:40:22.129Z,17.17
2018-11-06T02:42:52.751Z,17.33
2018-11-06T02:45:21.783Z,16.40
2018-11-06T02:47:50.729Z,17.90
2018-11-06T02:50:21.214Z,18.23
2018-11-06T02:52:52.919Z,17.30
2018-11-06T02:55:21.876Z,18.60
2018-11-06T02:57:51.804Z,17.63
2018-11-06T03:00:20.776Z,17.57
2018-11-06T03:02:50.320Z,17.63
2018-11-06T03:05:20.082Z,18.67
2018-11-06T03:07:49.471Z,19.00
2018-11-06T03:10:20.464Z,18.97
2018-11-06T03:12:51.222Z,19.80
2018-11-06T03:15:20.269Z,18.73
2018-11-06T03:17:49.263Z,19.77
2018-11-06T03:20:18.360Z,18.43
2018-11-06T03:22:49.744Z,19.57
2018-11-06T03:25:21.829Z,18.90
2018-11-06T03:27:51.318Z,20.13
2018-11-06T03:30:21.596Z,19.87
2018-11-06T03:32:52.211Z,20.27
2018-11-06T03:35:21.479Z,19.80
2018-11-06T03:37:50.495Z,19.50
2018-11-06T03:40:21.728Z,20.30
2018-11-06T03:42:52.230Z,20.87
2018-11-06T03:45:21.205Z,19.27
2018-11-06T03:47:52.599Z,20.00
2018-11-06T03:50:26.044Z,20.80
2018-11-06T03:52:54.996Z,20.43
2018-11-06T03:55:24.475Z,20.20
2018-11-06T03:57:53.526Z,20.70
2018-11-06T04:00:22.771Z,21.50
2018-11-06T04:02:51.765Z,21.47
2018-11-06T04:05:20.923Z,20.93
2018-11-06T04:07:50.297Z,21.73
2018-11-06T04:10:19.257Z,23.27
2018-11-06T04:12:48.830Z,22.60
2018-11-06T04:15:17.822Z,21.67
2018-11-06T04:17:48.526Z,21.37
2018-11-06T04:20:18.254Z,21.90
2018-11-06T04:22:47.933Z,20.67
2018-11-06T04:25:17.826Z,23.03
2018-11-06T04:27:46.903Z,22.53
2018-11-06T04:30:17.885Z,21.53
2018-11-06T04:32:51.067Z,23.33
2018-11-06T04:35:22.865Z,23.27
2018-11-06T04:37:53.998Z,23.73
2018-11-06T04:40:24.679Z,23.93
2018-11-06T04:43:00.368Z,24.47
2018-11-06T04:45:31.225Z,24.03
2018-11-06T04:48:02.636Z,25.40
2018-11-06T04:50:36.333Z,25.27
2018-11-06T04:53:05.345Z,24.77
2018-11-06T04:55:45.260Z,25.27
2018-11-06T04:58:16.881Z,26.80
2018-11-06T05:00:49.135Z,25.37
2018-11-06T05:03:19.919Z,25.23
2018-11-06T05:05:49.978Z,25.70
2018-11-06T05:08:24.365Z,26.33
2018-11-06T05:11:03.042Z,25.17
2018-11-06T05:13:33.580Z,27.30
2018-11-06T05:16:02.530Z,25.67
2018-11-06T05:18:31.668Z,27.23
2018-11-06T05:21:01.346Z,27.20
2018-11-06T05:23:36.680Z,28.47
2018-11-06T05:26:05.863Z,27.47
2018-11-06T05:28:35.511Z,28.47
2018-11-06T05:31:04.657Z,28.10
2018-11-06T05:33:33.851Z,28.23
2018-11-06T05:36:02.829Z,26.73
2018-11-06T05:38:31.867Z,27.43
2018-11-06T05:41:08.605Z,26.93
2018-11-06T05:43:38.525Z,27.60
2018-11-06T05:46:07.938Z,27.77
2018-11-06T05:48:37.020Z,27.13
2018-11-06T05:51:06.073Z,27.57
2018-11-06T05:53:35.220Z,27.90
2018-11-06T05:56:04.476Z,28.60
2018-11-06T05:58:33.580Z,28.87
2018-11-06T06:01:03.260Z,29.47
2018-11-06T06:03:32.254Z,28.30
2018-11-06T06:06:01.554Z,29.27
2018-11-06T06:08:31.591Z,28.53
2018-11-06T06:11:00.996Z,29.47
2018-11-06T06:13:30.319Z,30.03
2018-11-06T06:16:00.338Z,29.40
2018-11-06T06:18:29.335Z,29.33
2018-11-06T06:20:58.426Z,29.83
2018-11-06T06:23:27.389Z,28.90
2018-11-06T06:25:57.955Z,30.27
2018-11-06T06:28:26.992Z,30.27
2018-11-06T06:30:56.174Z,29.47
2018-11-06T06:33:30.884Z,31.43
2018-11-06T06:36:01.043Z,31.43
2018-11-06T06:38:30.950Z,30.70
2018-11-06T06:41:05.009Z,30.13
2018-11-06T06:43:33.891Z,31.03
2018-11-06T06:46:03.543Z,29.20
2018-11-06T06:48:32.613Z,30.53
2018-11-06T06:51:10.446Z,31.57
2018-11-06T06:53:44.907Z,31.37
2018-11-06T06:56:14.517Z,30.53
2018-11-06T06:58:43.813Z,33.07
2018-11-06T07:01:12.885Z,31.67
2018-11-06T07:03:45.997Z,32.30
2018-11-06T07:06:15.174Z,30.57
2018-11-06T07:08:44.983Z,32.40
2018-11-06T07:11:14.077Z,31.77
2018-11-06T07:13:51.193Z,34.63
2018-11-06T07:16:22.145Z,34.70
2018-11-06T07:18:51.445Z,35.83
2018-11-06T07:21:22.712Z,34.33
2018-11-06T07:23:52.767Z,33.53
2018-11-06T07:26:21.926Z,30.77
2018-11-06T07:28:53.142Z,32.07
2018-11-06T07:31:22.577Z,28.27
2018-11-06T07:33:51.631Z,24.60
2018-11-06T07:36:22.080Z,23.23
2018-11-06T07:38:51.596Z,22.10
2018-11-06T07:41:25.256Z,22.90
2018-11-06T07:43:55.406Z,22.10
2018-11-06T07:46:25.420Z,22.45
2018-11-06T07:48:54.412Z,25.05
2018-11-06T07:51:23.798Z,24.72
2018-11-06T07:53:54.395Z,23.30
2018-11-06T07:56:26.029Z,25.02
2018-11-06T07:58:55.174Z,27.48
2018-11-06T08:01:24.151Z,24.60
2018-11-06T08:03:54.912Z,24.90
2018-11-06T08:06:25.065Z,22.45
2018-11-06T08:08:56.269Z,23.92
2018-11-06T08:11:30.406Z,23.20
2018-11-06T08:14:01.501Z,22.67
2018-11-06T08:16:34.241Z,24.00
2018-11-06T08:19:04.961Z,22.02
2018-11-06T08:21:35.305Z,23.25
2018-11-06T08:24:05.020Z,22.40
2018-11-06T08:29:14.370Z,25.02
2018-11-06T08:31:44.863Z,23.30
2018-11-06T08:34:13.720Z,25.35
2018-11-06T08:36:42.883Z,23.40
2018-11-06T08:39:14.136Z,22.95
2018-11-06T08:41:46.168Z,23.10
2018-11-06T08:44:18.831Z,23.00
2018-11-06T08:46:48.876Z,23.50
2018-11-06T08:49:26.715Z,23.00
2018-11-06T08:51:59.874Z,23.38
2018-11-06T08:54:30.225Z,25.25
2018-11-06T08:56:59.247Z,25.43
2018-11-06T08:59:28.712Z,23.92
2018-11-06T09:02:01.962Z,23.95
2018-11-06T09:04:30.965Z,24.50
2018-11-06T09:07:05.193Z,23.90
2018-11-06T09:09:35.114Z,23.07
2018-11-06T09:12:06.839Z,23.27
2018-11-06T09:14:40.340Z,23.07
2018-11-06T09:17:09.497Z,22.67
2018-11-06T09:19:38.525Z,23.25
2018-11-06T09:22:10.425Z,24.12
2018-11-06T09:24:40.403Z,23.57
2018-11-06T09:27:14.635Z,24.67
2018-11-06T09:29:43.646Z,23.25
2018-11-06T09:32:21.171Z,24.25
2018-11-06T09:34:56.587Z,23.65
2018-11-06T09:37:27.924Z,22.93
2018-11-06T09:40:00.160Z,22.58
2018-11-06T09:42:33.569Z,21.75
2018-11-06T09:45:05.407Z,22.70
2018-11-06T09:47:34.326Z,23.12
2018-11-06T09:50:04.403Z,22.58
2018-11-06T09:52:37.802Z,22.95
2018-11-06T09:55:14.312Z,22.30
2018-11-06T09:57:43.822Z,22.25
2018-11-06T10:00:17.313Z,22.95
2018-11-06T10:02:48.184Z,22.98
2018-11-06T10:05:25.548Z,22.87
2018-11-06T10:07:56.755Z,22.52
2018-11-06T10:10:30.166Z,23.20
2018-11-06T10:13:06.082Z,22.32
2018-11-06T10:15:40.142Z,22.15
2018-11-06T10:18:13.894Z,22.80
2018-11-06T10:20:49.907Z,22.98
2018-11-06T10:23:21.428Z,22.70
2018-11-06T10:25:56.173Z,23.22
2018-11-06T10:28:25.691Z,23.25
2018-11-06T10:30:59.501Z,22.37
2018-11-06T10:33:28.789Z,22.60
2018-11-06T10:36:05.639Z,22.60
2018-11-06T10:38:35.001Z,22.48
2018-11-06T10:41:04.089Z,21.40
2018-11-06T10:43:36.961Z,21.27
2018-11-06T10:46:12.608Z,22.45
2018-11-06T10:48:41.627Z,22.32
2018-11-06T10:51:14.636Z,22.55
2018-11-06T10:53:46.501Z,21.85
2018-11-06T10:56:20.264Z,21.40
2018-11-06T10:58:49.370Z,21.40
2018-11-06T11:01:32.056Z,22.48
2018-11-06T11:04:09.622Z,22.85
2018-11-06T11:06:38.977Z,22.60
2018-11-06T11:09:16.660Z,21.15
2018-11-06T11:11:55.578Z,22.27
2018-11-06T11:14:30.158Z,23.12
2018-11-06T11:16:59.259Z,22.55
2018-11-06T11:19:36.176Z,21.27
2018-11-06T11:22:09.967Z,21.05
2018-11-06T11:24:39.104Z,22.05
2018-11-06T11:27:17.744Z,20.60
2018-11-06T11:29:53.702Z,21.25
2018-11-06T11:32:26.316Z,22.35
2018-11-06T11:35:05.410Z,21.30
2018-11-06T11:37:36.287Z,21.60
2018-11-06T11:40:16.289Z,21.48
2018-11-06T11:42:54.807Z,20.92
2018-11-06T11:45:23.963Z,22.07
2018-11-06T11:48:06.593Z,21.45
2018-11-06T11:50:45.055Z,20.48
2018-11-06T11:53:14.025Z,21.80
2018-11-06T11:55:43.009Z,21.20
2018-11-06T11:58:27.860Z,20.27
2018-11-06T12:01:06.676Z,23.65
2018-11-06T12:03:35.961Z,20.20
2018-11-06T12:06:05.142Z,19.73
2018-11-06T12:08:38.319Z,21.62
2018-11-06T12:11:07.420Z,21.07
2018-11-06T12:13:36.547Z,20.85
2018-11-06T12:16:05.693Z,20.12
2018-11-06T12:18:34.887Z,20.17
2018-11-06T12:21:03.998Z,21.23
2018-11-06T12:23:33.199Z,19.90
2018-11-06T12:26:02.781Z,20.62
2018-11-06T12:28:31.979Z,20.55
2018-11-06T12:31:01.030Z,19.48
2018-11-06T12:33:30.296Z,21.20
2018-11-06T12:35:59.305Z,21.05
2018-11-06T12:38:29.348Z,20.00
2018-11-06T12:40:58.744Z,19.12
2018-11-06T12:43:27.981Z,19.15
2018-11-06T12:45:57.265Z,18.75
2018-11-06T12:48:26.221Z,19.20
2018-11-06T12:50:56.337Z,19.05
2018-11-06T12:53:25.525Z,18.55
2018-11-06T12:55:54.554Z,18.50
2018-11-06T12:58:23.623Z,19.48
2018-11-06T13:00:53.025Z,18.70
2018-11-06T13:03:22.571Z,19.85
2018-11-06T13:05:54.814Z,19.73
2018-11-06T13:08:23.962Z,18.32
2018-11-06T13:10:53.182Z,18.10
2018-11-06T13:13:23.307Z,19.07
2018-11-06T13:15:52.842Z,18.80
2018-11-06T13:18:22.498Z,19.57
2018-11-06T13:20:51.500Z,18.35
2018-11-06T13:23:20.597Z,19.40
2018-11-06T13:25:49.767Z,19.70
2018-11-06T13:28:18.825Z,20.23
2018-11-06T13:30:48.091Z,20.62
2018-11-06T13:33:18.266Z,20.37
2018-11-06T13:35:48.328Z,18.62
2018-11-06T13:38:19.824Z,20.45
2018-11-06T13:40:49.038Z,21.10
2018-11-06T13:43:18.114Z,20.32
2018-11-06T13:45:47.423Z,19.77
2018-11-06T13:48:17.191Z,19.62
2018-11-06T13:50:46.713Z,21.37
2018-11-06T13:53:16.217Z,20.90
2018-11-06T13:55:45.481Z,21.23
2018-11-06T13:58:14.745Z,20.23
2018-11-06T14:00:43.787Z,20.23
2018-11-06T14:03:12.907Z,20.90
2018-11-06T14:05:42.025Z,20.95
2018-11-06T14:08:11.209Z,20.72
2018-11-06T14:10:40.425Z,21.40
2018-11-06T14:13:10.364Z,21.00
2018-11-06T14:15:39.417Z,21.48
2018-11-06T14:18:08.486Z,20.55
2018-11-06T14:20:37.594Z,20.62
2018-11-06T14:23:06.776Z,21.23
2018-11-06T14:25:36.047Z,21.70
2018-11-06T14:28:06.256Z,21.30
2018-11-06T14:30:35.710Z,21.23
2018-11-06T14:33:04.771Z,21.93
2018-11-06T14:35:34.047Z,22.07
2018-11-06T14:38:03.487Z,22.00
2018-11-06T14:40:32.520Z,21.57
2018-11-06T14:43:01.602Z,21.30
2018-11-06T14:45:32.082Z,21.52
2018-11-06T14:48:01.335Z,22.17
2018-11-06T14:50:30.542Z,23.30
2018-11-06T14:52:59.644Z,22.60
2018-11-06T14:55:29.122Z,22.32
2018-11-06T14:57:58.277Z,22.85
2018-11-06T15:00:27.381Z,22.30
2018-11-06T15:02:56.538Z,22.63
2018-11-06T15:05:26.363Z,23.90
2018-11-06T15:07:55.527Z,23.98
2018-11-06T15:10:24.748Z,23.50
2018-11-06T15:12:53.811Z,23.67
2018-11-06T15:15:22.844Z,24.00
2018-11-06T15:17:52.008Z,23.23
2018-11-06T15:20:23.144Z,23.53
2018-11-06T15:22:52.177Z,23.93
2018-11-06T15:25:21.673Z,23.37
2018-11-06T15:27:51.021Z,24.33
2018-11-06T15:30:20.229Z,24.70
2018-11-06T15:32:49.368Z,25.47
2018-11-06T15:35:20.836Z,24.90
2018-11-06T15:37:50.290Z,24.77
2018-11-06T15:40:20.922Z,25.93
2018-11-06T15:42:50.431Z,25.00
2018-11-06T15:45:20.226Z,25.17
2018-11-06T15:47:49.925Z,25.25
2018-11-06T15:50:20.528Z,24.53
2018-11-06T15:52:50.633Z,23.47
2018-11-06T15:55:22.304Z,24.23
2018-11-06T15:57:51.779Z,25.47
2018-11-06T16:00:22.644Z,25.47
2018-11-06T16:02:52.763Z,26.23
2018-11-06T16:05:22.092Z,26.37
2018-11-06T16:07:51.640Z,24.70
2018-11-06T16:10:25.148Z,25.83
2018-11-06T16:12:54.292Z,24.77
2018-11-06T16:15:23.760Z,25.70
2018-11-06T16:17:53.016Z,26.73
2018-11-06T16:20:22.163Z,27.90
2018-11-06T16:22:51.257Z,26.83
2018-11-06T16:25:21.029Z,26.57
2018-11-06T16:27:51.391Z,26.20
2018-11-06T16:30:22.660Z,25.20
2018-11-06T16:32:51.937Z,27.20
2018-11-06T16:35:23.809Z,27.70
2018-11-06T16:37:53.259Z,27.87
2018-11-06T16:40:22.573Z,27.27
2018-11-06T16:42:51.898Z,26.07
2018-11-06T16:45:22.197Z,26.67
2018-11-06T16:47:51.947Z,26.13
2018-11-06T16:50:21.730Z,26.93
2018-11-06T16:52:51.441Z,27.80
2018-11-06T16:55:20.763Z,26.80
2018-11-06T16:57:50.224Z,26.53
2018-11-06T17:00:20.731Z,25.77
2018-11-06T17:02:49.665Z,26.87
2018-11-06T17:05:18.832Z,26.63
2018-11-06T17:07:49.196Z,26.63
2018-11-06T17:10:18.936Z,26.03
2018-11-06T17:12:48.136Z,26.83
2018-11-06T17:15:18.926Z,27.43
2018-11-06T17:17:49.978Z,27.73
2018-11-06T17:20:19.574Z,27.37
2018-11-06T17:22:48.682Z,26.53
2018-11-06T17:25:19.361Z,28.33
2018-11-06T17:27:48.505Z,29.47
2018-11-06T17:30:18.806Z,29.20
2018-11-06T17:32:48.023Z,28.83
2018-11-06T17:35:18.966Z,28.67
2018-11-06T17:37:48.169Z,29.13
2018-11-06T17:40:18.624Z,29.33
2018-11-06T17:42:48.590Z,28.10
2018-11-06T17:45:20.323Z,28.77
2018-11-06T17:47:49.498Z,28.13
2018-11-06T17:50:19.423Z,27.93
2018-11-06T17:52:48.617Z,28.47
2018-11-06T17:55:19.156Z,30.43
2018-11-06T17:57:48.218Z,27.70
2018-11-06T18:00:19.344Z,27.80
2018-11-06T18:02:49.250Z,29.67
2018-11-06T18:05:20.313Z,29.27
2018-11-06T18:07:50.205Z,29.37
2018-11-06T18:10:20.303Z,28.87
2018-11-06T18:12:49.711Z,30.17
2018-11-06T18:15:19.538Z,30.47
2018-11-06T18:17:48.796Z,30.37
2018-11-06T18:20:18.508Z,31.53
2018-11-06T18:22:47.597Z,30.97
2018-11-06T18:25:17.675Z,29.90
2018-11-06T18:27:47.889Z,29.83
2018-11-06T18:30:23.435Z,29.67
2018-11-06T18:32:53.622Z,30.73
2018-11-06T18:35:23.501Z,31.13
2018-11-06T18:37:53.751Z,31.40
2018-11-06T18:40:23.121Z,31.40
2018-11-06T18:42:52.756Z,30.87
2018-11-06T18:45:21.935Z,29.97
2018-11-06T18:47:51.067Z,30.13
2018-11-06T18:50:21.707Z,30.67
2018-11-06T18:52:52.006Z,31.40
2018-11-06T18:55:21.297Z,31.23
2018-11-06T18:57:51.366Z,31.17
2018-11-06T19:00:21.778Z,31.13
2018-11-06T19:02:52.226Z,31.17
2018-11-06T19:05:22.365Z,30.33
2018-11-06T19:07:51.609Z,32.10
2018-11-06T19:10:20.688Z,30.17
2018-11-06T19:12:49.871Z,33.00
2018-11-06T19:15:20.758Z,31.03
2018-11-06T19:17:50.982Z,31.57
2018-11-06T19:20:21.120Z,32.17
2018-11-06T19:22:51.961Z,32.67
2018-11-06T19:25:22.494Z,31.10
2018-11-06T19:27:53.351Z,31.57
2018-11-06T19:30:22.551Z,31.97
2018-11-06T19:32:52.963Z,32.70
2018-11-06T19:35:22.192Z,33.07
2018-11-06T19:37:52.335Z,32.90
2018-11-06T19:40:22.370Z,31.43
2018-11-06T19:42:52.463Z,33.63
2018-11-06T19:45:21.780Z,34.03
2018-11-06T19:47:53.074Z,33.20
2018-11-06T19:50:22.566Z,33.37
2018-11-06T19:52:51.757Z,32.83
2018-11-06T19:55:21.283Z,33.27
2018-11-06T19:57:50.448Z,33.53
2018-11-06T20:00:24.048Z,33.93
2018-11-06T20:02:54.193Z,34.57
2018-11-06T20:05:25.514Z,34.30
2018-11-06T20:07:54.496Z,32.80
2018-11-06T20:10:24.751Z,32.90
2018-11-06T20:12:54.960Z,33.37
2018-11-06T20:15:24.902Z,33.37
2018-11-06T20:17:54.173Z,33.97
2018-11-06T20:20:24.901Z,33.97
2018-11-06T20:22:54.178Z,33.07
2018-11-06T20:25:23.327Z,33.93
2018-11-06T20:27:52.763Z,34.07
2018-11-06T20:30:23.418Z,35.57
2018-11-06T20:32:52.508Z,32.77
2018-11-06T20:35:21.796Z,33.77
2018-11-06T20:37:51.252Z,34.63
2018-11-06T20:40:22.955Z,33.23
2018-11-06T20:42:52.214Z,34.33
2018-11-06T20:45:22.566Z,34.40
2018-11-06T20:47:52.641Z,33.90
2018-11-06T20:50:24.103Z,34.43
2018-11-06T20:52:53.230Z,34.40
2018-11-06T20:55:22.570Z,35.07
2018-11-06T20:57:58.127Z,34.13
2018-11-06T21:00:29.620Z,34.40
2018-11-06T21:03:02.432Z,36.10
2018-11-06T21:05:32.116Z,34.33
2018-11-06T21:08:01.329Z,34.00
2018-11-06T21:10:32.189Z,34.47
2018-11-06T21:13:01.359Z,34.47
2018-11-06T21:15:30.686Z,35.40
2018-11-06T21:18:00.169Z,35.40
2018-11-06T21:20:29.503Z,34.10
2018-11-06T21:22:59.555Z,34.87
2018-11-06T21:25:28.792Z,34.10
2018-11-06T21:27:58.223Z,35.57
2018-11-06T21:30:27.415Z,34.90
2018-11-06T21:32:56.472Z,34.63
2018-11-06T21:35:25.636Z,34.87
2018-11-06T21:37:54.844Z,35.07
2018-11-06T21:40:24.159Z,37.03
2018-11-06T21:42:53.300Z,36.43
2018-11-06T21:45:23.456Z,35.73
2018-11-06T21:47:52.730Z,34.43
2018-11-06T21:50:22.268Z,36.60
2018-11-06T21:52:52.715Z,36.40
2018-11-06T21:55:22.983Z,35.43
2018-11-06T21:57:52.451Z,35.53
2018-11-06T22:00:22.257Z,34.67
2018-11-06T22:02:52.082Z,38.10
2018-11-06T22:05:22.268Z,36.97
2018-11-06T22:07:52.055Z,35.83
2018-11-06T22:10:22.045Z,36.20
2018-11-06T22:12:51.256Z,35.93
2018-11-06T22:15:20.614Z,35.07
2018-11-06T22:17:49.689Z,35.23
2018-11-06T22:20:20.201Z,35.67
2018-11-06T22:22:49.615Z,35.47
2018-11-06T22:25:18.901Z,35.40
2018-11-06T22:27:49.612Z,35.50
2018-11-06T22:30:19.219Z,35.40
2018-11-06T22:32:53.403Z,34.63
2018-11-06T22:35:24.031Z,35.07
2018-11-06T22:37:54.490Z,34.80
2018-11-06T22:40:24.208Z,34.20
2018-11-06T22:42:54.342Z,35.40
2018-11-06T22:45:23.482Z,35.00
2018-11-06T22:47:52.712Z,35.53
2018-11-06T22:50:22.112Z,35.47
2018-11-06T22:52:51.389Z,35.00
2018-11-06T22:55:20.572Z,35.43
2018-11-06T22:57:50.446Z,34.93
2018-11-06T23:00:24.857Z,36.13
2018-11-06T23:02:54.010Z,35.90
2018-11-06T23:05:23.242Z,37.13
2018-11-06T23:07:57.747Z,35.93
2018-11-06T23:10:27.035Z,37.00
2018-11-06T23:12:56.622Z,35.00
2018-11-06T23:15:26.463Z,34.97
2018-11-06T23:18:04.864Z,34.80
2018-11-06T23:20:35.764Z,34.40
2018-11-06T23:23:05.036Z,35.00
2018-11-06T23:25:34.347Z,36.30
2018-11-06T23:28:03.692Z,35.70
2018-11-06T23:30:32.912Z,35.17
2018-11-06T23:33:02.317Z,35.00
2018-11-06T23:35:32.096Z,34.70
2018-11-06T23:38:01.270Z,34.90
2018-11-06T23:40:30.483Z,36.00
2018-11-06T23:42:59.773Z,36.13
2018-11-06T23:45:28.798Z,35.77
2018-11-06T23:47:58.442Z,34.77
2018-11-06T23:50:27.471Z,36.33
2018-11-06T23:52:56.575Z,34.70
2018-11-06T23:55:25.627Z,36.17
2018-11-06T23:57:54.826Z,35.83
